sensor_id;sensor_type;location;lat;lon;timestamp;P1;durP1;ratioP1;P2;durP2;ratioP2
80381;SDS011;69692;55.820;37.490;2023-08-06T00:00:52;14.07;;;8.18;;
80381;SDS011;69692;55.820;37.490;2023-08-06T00:03:17;13.20;;;8.80;;
80381;SDS011;69692;55.820;37.490;2023-08-06T00:05:43;17.60;;;9.77;;
80381;SDS011;69692;55.820;37.490;2023-08-06T00:08:09;14.20;;;9.13;;
80381;SDS011;69692;55.820;37.490;2023-08-06T00:10:35;11.25;;;7.45;;
80381;SDS011;69692;55.820;37.490;2023-08-06T00:13:01;13.18;;;9.23;;
80381;SDS011;69692;55.820;37.490;2023-08-06T00:15:26;14.45;;;7.90;;
80381;SDS011;69692;55.820;37.490;2023-08-06T00:17:52;16.00;;;9.02;;
80381;SDS011;69692;55.820;37.490;2023-08-06T00:20:18;14.15;;;8.07;;
80381;SDS011;69692;55.820;37.490;2023-08-06T00:22:44;12.68;;;8.57;;
80381;SDS011;69692;55.820;37.490;2023-08-06T00:25:10;16.73;;;8.13;;
80381;SDS011;69692;55.820;37.490;2023-08-06T00:27:35;14.10;;;10.15;;
80381;SDS011;69692;55.820;37.490;2023-08-06T00:30:01;14.93;;;7.63;;
80381;SDS011;69692;55.820;37.490;2023-08-06T00:32:32;13.98;;;9.95;;
80381;SDS011;69692;55.820;37.490;2023-08-06T00:34:58;11.77;;;8.75;;
80381;SDS011;69692;55.820;37.490;2023-08-06T00:37:24;16.17;;;8.63;;
80381;SDS011;69692;55.820;37.490;2023-08-06T00:39:49;18.00;;;8.48;;
80381;SDS011;69692;55.820;37.490;2023-08-06T00:42:15;13.18;;;8.60;;
80381;SDS011;69692;55.820;37.490;2023-08-06T00:44:46;12.63;;;8.45;;
80381;SDS011;69692;55.820;37.490;2023-08-06T00:47:11;14.38;;;8.40;;
80381;SDS011;69692;55.820;37.490;2023-08-06T00:49:38;15.65;;;9.55;;
80381;SDS011;69692;55.820;37.490;2023-08-06T00:52:05;14.80;;;8.75;;
80381;SDS011;69692;55.820;37.490;2023-08-06T00:54:36;13.57;;;8.68;;
80381;SDS011;69692;55.820;37.490;2023-08-06T00:57:03;15.55;;;8.45;;
80381;SDS011;69692;55.820;37.490;2023-08-06T00:59:32;12.25;;;8.20;;
80381;SDS011;69692;55.820;37.490;2023-08-06T01:01:58;11.38;;;8.15;;
80381;SDS011;69692;55.820;37.490;2023-08-06T01:04:24;17.80;;;8.82;;
80381;SDS011;69692;55.820;37.490;2023-08-06T01:09:45;15.30;;;8.00;;
80381;SDS011;69692;55.820;37.490;2023-08-06T01:15:21;15.27;;;8.02;;
80381;SDS011;69692;55.820;37.490;2023-08-06T01:17:50;12.98;;;8.90;;
80381;SDS011;69692;55.820;37.490;2023-08-06T01:20:16;12.98;;;9.48;;
80381;SDS011;69692;55.820;37.490;2023-08-06T01:22:41;12.98;;;7.85;;
80381;SDS011;69692;55.820;37.490;2023-08-06T01:25:07;13.50;;;9.13;;
80381;SDS011;69692;55.820;37.490;2023-08-06T01:27:36;12.32;;;8.18;;
80381;SDS011;69692;55.820;37.490;2023-08-06T01:30:12;12.73;;;7.57;;
80381;SDS011;69692;55.820;37.490;2023-08-06T01:32:43;14.77;;;9.27;;
80381;SDS011;69692;55.820;37.490;2023-08-06T01:35:12;17.75;;;8.52;;
80381;SDS011;69692;55.820;37.490;2023-08-06T01:37:41;11.32;;;8.40;;
80381;SDS011;69692;55.820;37.490;2023-08-06T01:40:09;13.75;;;9.15;;
80381;SDS011;69692;55.820;37.490;2023-08-06T01:42:39;13.27;;;8.35;;
80381;SDS011;69692;55.820;37.490;2023-08-06T01:45:05;14.85;;;7.68;;
80381;SDS011;69692;55.820;37.490;2023-08-06T01:47:32;13.55;;;9.07;;
80381;SDS011;69692;55.820;37.490;2023-08-06T01:49:58;14.07;;;7.47;;
80381;SDS011;69692;55.820;37.490;2023-08-06T01:52:24;12.15;;;8.63;;
80381;SDS011;69692;55.820;37.490;2023-08-06T01:54:50;13.20;;;8.18;;
80381;SDS011;69692;55.820;37.490;2023-08-06T01:57:15;13.13;;;7.72;;
80381;SDS011;69692;55.820;37.490;2023-08-06T01:59:41;11.75;;;7.20;;
80381;SDS011;69692;55.820;37.490;2023-08-06T02:02:07;11.85;;;7.68;;
80381;SDS011;69692;55.820;37.490;2023-08-06T02:04:33;13.95;;;7.38;;
80381;SDS011;69692;55.820;37.490;2023-08-06T02:06:59;16.77;;;8.27;;
80381;SDS011;69692;55.820;37.490;2023-08-06T02:09:24;16.02;;;9.00;;
80381;SDS011;69692;55.820;37.490;2023-08-06T02:11:51;12.77;;;9.55;;
80381;SDS011;69692;55.820;37.490;2023-08-06T02:14:17;16.90;;;8.18;;
80381;SDS011;69692;55.820;37.490;2023-08-06T02:16:43;12.65;;;8.82;;
80381;SDS011;69692;55.820;37.490;2023-08-06T02:19:09;12.88;;;8.70;;
80381;SDS011;69692;55.820;37.490;2023-08-06T02:21:35;12.25;;;7.63;;
80381;SDS011;69692;55.820;37.490;2023-08-06T02:24:00;12.63;;;8.07;;
80381;SDS011;69692;55.820;37.490;2023-08-06T02:26:26;10.90;;;7.95;;
80381;SDS011;69692;55.820;37.490;2023-08-06T02:28:55;13.70;;;8.68;;
80381;SDS011;69692;55.820;37.490;2023-08-06T02:31:21;13.63;;;8.70;;
80381;SDS011;69692;55.820;37.490;2023-08-06T02:33:46;15.20;;;9.00;;
80381;SDS011;69692;55.820;37.490;2023-08-06T02:36:12;12.98;;;8.50;;
80381;SDS011;69692;55.820;37.490;2023-08-06T02:38:38;11.60;;;7.38;;
80381;SDS011;69692;55.820;37.490;2023-08-06T02:41:04;14.82;;;9.25;;
80381;SDS011;69692;55.820;37.490;2023-08-06T02:43:30;11.35;;;7.63;;
80381;SDS011;69692;55.820;37.490;2023-08-06T02:45:57;14.75;;;7.50;;
80381;SDS011;69692;55.820;37.490;2023-08-06T02:48:23;13.80;;;8.35;;
80381;SDS011;69692;55.820;37.490;2023-08-06T02:50:49;13.85;;;9.23;;
80381;SDS011;69692;55.820;37.490;2023-08-06T02:53:15;13.98;;;7.45;;
80381;SDS011;69692;55.820;37.490;2023-08-06T02:55:46;13.05;;;8.23;;
80381;SDS011;69692;55.820;37.490;2023-08-06T02:58:15;17.52;;;9.43;;
80381;SDS011;69692;55.820;37.490;2023-08-06T03:01:04;11.98;;;8.27;;
80381;SDS011;69692;55.820;37.490;2023-08-06T03:03:38;12.68;;;8.07;;
80381;SDS011;69692;55.820;37.490;2023-08-06T03:06:05;13.75;;;7.22;;
80381;SDS011;69692;55.820;37.490;2023-08-06T03:08:44;13.60;;;8.15;;
80381;SDS011;69692;55.820;37.490;2023-08-06T03:11:10;13.20;;;8.63;;
80381;SDS011;69692;55.820;37.490;2023-08-06T03:13:37;11.93;;;7.40;;
80381;SDS011;69692;55.820;37.490;2023-08-06T03:16:03;14.18;;;8.77;;
80381;SDS011;69692;55.820;37.490;2023-08-06T03:18:30;12.88;;;8.63;;
80381;SDS011;69692;55.820;37.490;2023-08-06T03:20:58;14.02;;;8.02;;
80381;SDS011;69692;55.820;37.490;2023-08-06T03:23:28;12.23;;;7.47;;
80381;SDS011;69692;55.820;37.490;2023-08-06T03:25:53;10.25;;;7.25;;
80381;SDS011;69692;55.820;37.490;2023-08-06T03:28:19;11.50;;;8.32;;
80381;SDS011;69692;55.820;37.490;2023-08-06T03:30:46;13.00;;;7.55;;
80381;SDS011;69692;55.820;37.490;2023-08-06T03:33:12;12.77;;;8.27;;
80381;SDS011;69692;55.820;37.490;2023-08-06T03:35:39;13.45;;;7.32;;
80381;SDS011;69692;55.820;37.490;2023-08-06T03:38:05;10.38;;;7.75;;
80381;SDS011;69692;55.820;37.490;2023-08-06T03:40:32;12.82;;;7.78;;
80381;SDS011;69692;55.820;37.490;2023-08-06T03:43:00;10.30;;;8.30;;
80381;SDS011;69692;55.820;37.490;2023-08-06T03:45:26;11.18;;;7.57;;
80381;SDS011;69692;55.820;37.490;2023-08-06T03:47:52;10.27;;;7.03;;
80381;SDS011;69692;55.820;37.490;2023-08-06T03:50:18;16.60;;;7.85;;
80381;SDS011;69692;55.820;37.490;2023-08-06T03:52:43;12.70;;;7.03;;
80381;SDS011;69692;55.820;37.490;2023-08-06T03:55:10;14.57;;;7.80;;
80381;SDS011;69692;55.820;37.490;2023-08-06T03:57:36;12.77;;;7.95;;
80381;SDS011;69692;55.820;37.490;2023-08-06T04:00:03;12.93;;;8.20;;
80381;SDS011;69692;55.820;37.490;2023-08-06T04:02:41;13.52;;;7.28;;
80381;SDS011;69692;55.820;37.490;2023-08-06T04:05:08;11.35;;;7.88;;
80381;SDS011;69692;55.820;37.490;2023-08-06T04:07:34;12.95;;;8.20;;
80381;SDS011;69692;55.820;37.490;2023-08-06T04:10:01;13.55;;;7.63;;
80381;SDS011;69692;55.820;37.490;2023-08-06T04:12:30;11.60;;;8.50;;
80381;SDS011;69692;55.820;37.490;2023-08-06T04:14:58;17.10;;;7.28;;
80381;SDS011;69692;55.820;37.490;2023-08-06T04:17:25;11.20;;;7.95;;
80381;SDS011;69692;55.820;37.490;2023-08-06T04:19:52;15.85;;;6.60;;
80381;SDS011;69692;55.820;37.490;2023-08-06T04:22:19;11.45;;;7.47;;
80381;SDS011;69692;55.820;37.490;2023-08-06T04:24:46;12.40;;;6.57;;
80381;SDS011;69692;55.820;37.490;2023-08-06T04:27:13;12.68;;;7.50;;
80381;SDS011;69692;55.820;37.490;2023-08-06T04:29:40;8.50;;;6.65;;
80381;SDS011;69692;55.820;37.490;2023-08-06T04:32:07;11.68;;;6.60;;
80381;SDS011;69692;55.820;37.490;2023-08-06T04:34:35;9.63;;;5.70;;
80381;SDS011;69692;55.820;37.490;2023-08-06T04:37:01;10.45;;;6.35;;
80381;SDS011;69692;55.820;37.490;2023-08-06T04:39:28;11.10;;;5.85;;
80381;SDS011;69692;55.820;37.490;2023-08-06T04:41:58;12.52;;;6.70;;
80381;SDS011;69692;55.820;37.490;2023-08-06T04:44:24;11.02;;;6.90;;
80381;SDS011;69692;55.820;37.490;2023-08-06T04:46:50;12.32;;;7.28;;
80381;SDS011;69692;55.820;37.490;2023-08-06T04:49:15;8.82;;;6.85;;
80381;SDS011;69692;55.820;37.490;2023-08-06T04:51:41;13.25;;;6.78;;
80381;SDS011;69692;55.820;37.490;2023-08-06T04:54:07;10.70;;;6.40;;
80381;SDS011;69692;55.820;37.490;2023-08-06T04:56:33;15.40;;;7.03;;
80381;SDS011;69692;55.820;37.490;2023-08-06T04:58:59;14.82;;;7.50;;
80381;SDS011;69692;55.820;37.490;2023-08-06T05:01:25;9.18;;;6.10;;
80381;SDS011;69692;55.820;37.490;2023-08-06T05:03:51;10.02;;;5.47;;
80381;SDS011;69692;55.820;37.490;2023-08-06T05:06:17;8.25;;;5.47;;
80381;SDS011;69692;55.820;37.490;2023-08-06T05:08:42;14.00;;;6.10;;
80381;SDS011;69692;55.820;37.490;2023-08-06T05:11:09;17.58;;;7.03;;
80381;SDS011;69692;55.820;37.490;2023-08-06T05:13:35;7.32;;;5.28;;
80381;SDS011;69692;55.820;37.490;2023-08-06T05:16:01;11.50;;;6.43;;
80381;SDS011;69692;55.820;37.490;2023-08-06T05:18:26;14.20;;;6.57;;
80381;SDS011;69692;55.820;37.490;2023-08-06T05:20:52;9.20;;;6.22;;
80381;SDS011;69692;55.820;37.490;2023-08-06T05:23:18;10.95;;;5.78;;
80381;SDS011;69692;55.820;37.490;2023-08-06T05:25:44;7.82;;;5.50;;
80381;SDS011;69692;55.820;37.490;2023-08-06T05:28:09;11.70;;;6.13;;
80381;SDS011;69692;55.820;37.490;2023-08-06T05:30:38;8.52;;;5.63;;
80381;SDS011;69692;55.820;37.490;2023-08-06T05:33:05;9.18;;;5.80;;
80381;SDS011;69692;55.820;37.490;2023-08-06T05:35:31;9.82;;;5.88;;
80381;SDS011;69692;55.820;37.490;2023-08-06T05:37:57;10.82;;;5.43;;
80381;SDS011;69692;55.820;37.490;2023-08-06T05:40:23;14.95;;;6.32;;
80381;SDS011;69692;55.820;37.490;2023-08-06T05:42:54;12.80;;;6.57;;
80381;SDS011;69692;55.820;37.490;2023-08-06T05:47:49;12.73;;;6.03;;
80381;SDS011;69692;55.820;37.490;2023-08-06T05:50:15;9.35;;;6.22;;
80381;SDS011;69692;55.820;37.490;2023-08-06T05:52:41;8.30;;;5.43;;
80381;SDS011;69692;55.820;37.490;2023-08-06T05:55:07;12.48;;;5.95;;
80381;SDS011;69692;55.820;37.490;2023-08-06T05:57:33;9.20;;;6.10;;
80381;SDS011;69692;55.820;37.490;2023-08-06T05:59:59;12.50;;;6.30;;
80381;SDS011;69692;55.820;37.490;2023-08-06T06:02:26;15.63;;;6.25;;
80381;SDS011;69692;55.820;37.490;2023-08-06T06:04:52;10.93;;;6.70;;
80381;SDS011;69692;55.820;37.490;2023-08-06T06:07:18;11.85;;;5.88;;
80381;SDS011;69692;55.820;37.490;2023-08-06T06:09:44;9.07;;;5.93;;
80381;SDS011;69692;55.820;37.490;2023-08-06T06:12:09;7.55;;;5.65;;
80381;SDS011;69692;55.820;37.490;2023-08-06T06:14:35;8.32;;;6.00;;
80381;SDS011;69692;55.820;37.490;2023-08-06T06:17:01;9.63;;;6.03;;
80381;SDS011;69692;55.820;37.490;2023-08-06T06:19:27;11.10;;;6.53;;
80381;SDS011;69692;55.820;37.490;2023-08-06T06:21:53;7.72;;;6.20;;
80381;SDS011;69692;55.820;37.490;2023-08-06T06:24:19;12.80;;;6.22;;
80381;SDS011;69692;55.820;37.490;2023-08-06T06:26:45;8.98;;;5.22;;
80381;SDS011;69692;55.820;37.490;2023-08-06T06:29:11;11.43;;;6.28;;
80381;SDS011;69692;55.820;37.490;2023-08-06T06:31:36;9.23;;;5.45;;
80381;SDS011;69692;55.820;37.490;2023-08-06T06:34:02;9.13;;;5.88;;
80381;SDS011;69692;55.820;37.490;2023-08-06T06:36:28;7.03;;;5.35;;
80381;SDS011;69692;55.820;37.490;2023-08-06T06:38:54;12.88;;;5.68;;
80381;SDS011;69692;55.820;37.490;2023-08-06T06:41:20;8.75;;;4.78;;
80381;SDS011;69692;55.820;37.490;2023-08-06T06:43:46;9.77;;;4.90;;
80381;SDS011;69692;55.820;37.490;2023-08-06T06:46:12;7.90;;;4.95;;
80381;SDS011;69692;55.820;37.490;2023-08-06T06:48:37;7.97;;;4.18;;
80381;SDS011;69692;55.820;37.490;2023-08-06T06:51:03;10.15;;;4.80;;
80381;SDS011;69692;55.820;37.490;2023-08-06T06:53:29;10.05;;;4.70;;
80381;SDS011;69692;55.820;37.490;2023-08-06T06:55:56;10.48;;;5.25;;
80381;SDS011;69692;55.820;37.490;2023-08-06T06:58:26;9.32;;;5.22;;
80381;SDS011;69692;55.820;37.490;2023-08-06T07:00:52;12.90;;;5.43;;
80381;SDS011;69692;55.820;37.490;2023-08-06T07:03:19;6.65;;;5.15;;
80381;SDS011;69692;55.820;37.490;2023-08-06T07:05:45;7.25;;;4.85;;
80381;SDS011;69692;55.820;37.490;2023-08-06T07:08:11;10.48;;;5.38;;
80381;SDS011;69692;55.820;37.490;2023-08-06T07:10:37;10.70;;;5.07;;
80381;SDS011;69692;55.820;37.490;2023-08-06T07:13:03;7.50;;;4.55;;
80381;SDS011;69692;55.820;37.490;2023-08-06T07:15:29;7.45;;;4.85;;
80381;SDS011;69692;55.820;37.490;2023-08-06T07:17:55;6.68;;;4.97;;
80381;SDS011;69692;55.820;37.490;2023-08-06T07:20:21;12.70;;;5.53;;
80381;SDS011;69692;55.820;37.490;2023-08-06T07:22:46;7.20;;;4.10;;
80381;SDS011;69692;55.820;37.490;2023-08-06T07:25:12;10.55;;;5.05;;
80381;SDS011;69692;55.820;37.490;2023-08-06T07:27:38;8.73;;;4.78;;
80381;SDS011;69692;55.820;37.490;2023-08-06T07:30:04;8.48;;;5.30;;
80381;SDS011;69692;55.820;37.490;2023-08-06T07:32:31;8.45;;;4.50;;
80381;SDS011;69692;55.820;37.490;2023-08-06T07:34:57;5.15;;;4.60;;
80381;SDS011;69692;55.820;37.490;2023-08-06T07:37:28;8.88;;;4.30;;
80381;SDS011;69692;55.820;37.490;2023-08-06T07:39:55;8.15;;;4.78;;
80381;SDS011;69692;55.820;37.490;2023-08-06T07:42:22;6.00;;;4.63;;
80381;SDS011;69692;55.820;37.490;2023-08-06T07:44:55;7.55;;;5.25;;
80381;SDS011;69692;55.820;37.490;2023-08-06T07:47:22;8.48;;;4.18;;
80381;SDS011;69692;55.820;37.490;2023-08-06T07:49:48;10.02;;;4.32;;
80381;SDS011;69692;55.820;37.490;2023-08-06T07:52:14;9.02;;;4.97;;
80381;SDS011;69692;55.820;37.490;2023-08-06T07:54:40;8.23;;;4.78;;
80381;SDS011;69692;55.820;37.490;2023-08-06T07:57:07;4.78;;;4.05;;
80381;SDS011;69692;55.820;37.490;2023-08-06T07:59:32;8.10;;;3.95;;
80381;SDS011;69692;55.820;37.490;2023-08-06T08:01:58;10.02;;;4.95;;
80381;SDS011;69692;55.820;37.490;2023-08-06T08:04:25;7.25;;;4.03;;
80381;SDS011;69692;55.820;37.490;2023-08-06T08:06:51;6.78;;;3.95;;
80381;SDS011;69692;55.820;37.490;2023-08-06T08:09:17;6.20;;;4.82;;
80381;SDS011;69692;55.820;37.490;2023-08-06T08:11:43;6.85;;;3.70;;
80381;SDS011;69692;55.820;37.490;2023-08-06T08:14:09;5.35;;;4.03;;
80381;SDS011;69692;55.820;37.490;2023-08-06T08:16:35;7.05;;;4.25;;
80381;SDS011;69692;55.820;37.490;2023-08-06T08:19:01;8.60;;;4.85;;
80381;SDS011;69692;55.820;37.490;2023-08-06T08:21:28;5.80;;;4.82;;
80381;SDS011;69692;55.820;37.490;2023-08-06T08:23:54;7.10;;;4.50;;
80381;SDS011;69692;55.820;37.490;2023-08-06T08:26:20;6.28;;;4.72;;
80381;SDS011;69692;55.820;37.490;2023-08-06T08:28:45;9.23;;;4.65;;
80381;SDS011;69692;55.820;37.490;2023-08-06T08:31:11;6.88;;;4.82;;
80381;SDS011;69692;55.820;37.490;2023-08-06T08:33:37;7.93;;;5.38;;
80381;SDS011;69692;55.820;37.490;2023-08-06T08:36:03;5.22;;;4.50;;
80381;SDS011;69692;55.820;37.490;2023-08-06T08:38:30;7.00;;;5.32;;
80381;SDS011;69692;55.820;37.490;2023-08-06T08:40:58;6.68;;;5.43;;
80381;SDS011;69692;55.820;37.490;2023-08-06T08:43:24;6.18;;;4.80;;
80381;SDS011;69692;55.820;37.490;2023-08-06T08:45:50;5.22;;;4.50;;
80381;SDS011;69692;55.820;37.490;2023-08-06T08:48:17;6.05;;;5.00;;
80381;SDS011;69692;55.820;37.490;2023-08-06T08:50:47;7.43;;;5.47;;
80381;SDS011;69692;55.820;37.490;2023-08-06T08:53:15;12.15;;;5.43;;
80381;SDS011;69692;55.820;37.490;2023-08-06T08:55:42;7.85;;;5.53;;
80381;SDS011;69692;55.820;37.490;2023-08-06T08:58:10;7.50;;;5.80;;
80381;SDS011;69692;55.820;37.490;2023-08-06T09:00:36;6.93;;;5.75;;
80381;SDS011;69692;55.820;37.490;2023-08-06T09:03:04;9.63;;;6.03;;
80381;SDS011;69692;55.820;37.490;2023-08-06T09:05:32;10.10;;;6.35;;
80381;SDS011;69692;55.820;37.490;2023-08-06T09:08:02;7.43;;;6.18;;
80381;SDS011;69692;55.820;37.490;2023-08-06T09:10:29;11.70;;;6.57;;
80381;SDS011;69692;55.820;37.490;2023-08-06T09:12:56;7.93;;;6.75;;
80381;SDS011;69692;55.820;37.490;2023-08-06T09:15:26;8.05;;;6.13;;
80381;SDS011;69692;55.820;37.490;2023-08-06T09:17:53;8.73;;;6.43;;
80381;SDS011;69692;55.820;37.490;2023-08-06T09:20:20;9.40;;;6.53;;
80381;SDS011;69692;55.820;37.490;2023-08-06T09:22:46;7.18;;;6.13;;
80381;SDS011;69692;55.820;37.490;2023-08-06T09:25:21;6.88;;;5.95;;
80381;SDS011;69692;55.820;37.490;2023-08-06T09:27:50;7.90;;;6.95;;
80381;SDS011;69692;55.820;37.490;2023-08-06T09:30:30;8.50;;;6.43;;
80381;SDS011;69692;55.820;37.490;2023-08-06T09:32:57;8.55;;;6.47;;
80381;SDS011;69692;55.820;37.490;2023-08-06T09:35:23;6.65;;;3.90;;
80381;SDS011;69692;55.820;37.490;2023-08-06T09:37:49;10.85;;;5.95;;
80381;SDS011;69692;55.820;37.490;2023-08-06T09:40:29;8.57;;;6.95;;
80381;SDS011;69692;55.820;37.490;2023-08-06T09:42:56;8.65;;;7.15;;
80381;SDS011;69692;55.820;37.490;2023-08-06T09:45:24;10.05;;;6.80;;
80381;SDS011;69692;55.820;37.490;2023-08-06T09:47:55;9.15;;;5.20;;
80381;SDS011;69692;55.820;37.490;2023-08-06T09:50:22;8.80;;;6.82;;
80381;SDS011;69692;55.820;37.490;2023-08-06T09:52:48;7.05;;;6.40;;
80381;SDS011;69692;55.820;37.490;2023-08-06T09:55:16;10.88;;;5.03;;
80381;SDS011;69692;55.820;37.490;2023-08-06T09:57:45;5.88;;;5.32;;
80381;SDS011;69692;55.820;37.490;2023-08-06T10:00:12;7.35;;;6.10;;
80381;SDS011;69692;55.820;37.490;2023-08-06T10:02:39;7.93;;;5.97;;
80381;SDS011;69692;55.820;37.490;2023-08-06T10:05:07;11.73;;;6.45;;
80381;SDS011;69692;55.820;37.490;2023-08-06T10:07:34;10.05;;;6.15;;
80381;SDS011;69692;55.820;37.490;2023-08-06T10:10:00;7.80;;;6.78;;
80381;SDS011;69692;55.820;37.490;2023-08-06T10:12:32;7.57;;;6.57;;
80381;SDS011;69692;55.820;37.490;2023-08-06T10:15:03;7.53;;;6.53;;
80381;SDS011;69692;55.820;37.490;2023-08-06T10:17:32;9.88;;;6.85;;
80381;SDS011;69692;55.820;37.490;2023-08-06T10:20:00;7.07;;;6.32;;
80381;SDS011;69692;55.820;37.490;2023-08-06T10:22:26;8.10;;;6.43;;
80381;SDS011;69692;55.820;37.490;2023-08-06T10:24:54;8.75;;;6.35;;
80381;SDS011;69692;55.820;37.490;2023-08-06T10:30:25;8.63;;;5.45;;
80381;SDS011;69692;55.820;37.490;2023-08-06T10:32:58;8.98;;;7.25;;
80381;SDS011;69692;55.820;37.490;2023-08-06T10:35:30;8.20;;;7.50;;
80381;SDS011;69692;55.820;37.490;2023-08-06T10:38:07;6.88;;;6.20;;
80381;SDS011;69692;55.820;37.490;2023-08-06T10:40:34;8.13;;;7.32;;
80381;SDS011;69692;55.820;37.490;2023-08-06T10:43:08;8.98;;;7.63;;
80381;SDS011;69692;55.820;37.490;2023-08-06T10:48:28;10.05;;;7.13;;
80381;SDS011;69692;55.820;37.490;2023-08-06T10:50:56;11.23;;;9.05;;
80381;SDS011;69692;55.820;37.490;2023-08-06T10:53:21;12.20;;;7.63;;
80381;SDS011;69692;55.820;37.490;2023-08-06T10:55:47;10.68;;;8.82;;
80381;SDS011;69692;55.820;37.490;2023-08-06T10:58:15;9.63;;;8.32;;
80381;SDS011;69692;55.820;37.490;2023-08-06T11:00:42;8.15;;;7.25;;
80381;SDS011;69692;55.820;37.490;2023-08-06T11:03:08;9.57;;;8.77;;
80381;SDS011;69692;55.820;37.490;2023-08-06T11:05:35;6.00;;;5.03;;
80381;SDS011;69692;55.820;37.490;2023-08-06T11:08:01;7.93;;;7.22;;
80381;SDS011;69692;55.820;37.490;2023-08-06T11:10:28;8.73;;;7.93;;
80381;SDS011;69692;55.820;37.490;2023-08-06T11:12:54;7.55;;;6.80;;
80381;SDS011;69692;55.820;37.490;2023-08-06T11:15:20;9.02;;;6.80;;
80381;SDS011;69692;55.820;37.490;2023-08-06T11:17:46;10.70;;;8.35;;
80381;SDS011;69692;55.820;37.490;2023-08-06T11:20:12;12.38;;;9.70;;
80381;SDS011;69692;55.820;37.490;2023-08-06T11:22:38;10.20;;;9.30;;
80381;SDS011;69692;55.820;37.490;2023-08-06T11:25:05;9.63;;;8.75;;
80381;SDS011;69692;55.820;37.490;2023-08-06T11:27:32;11.07;;;10.07;;
80381;SDS011;69692;55.820;37.490;2023-08-06T11:29:58;11.23;;;10.15;;
80381;SDS011;69692;55.820;37.490;2023-08-06T11:32:24;11.02;;;9.50;;
80381;SDS011;69692;55.820;37.490;2023-08-06T11:34:50;6.05;;;5.32;;
80381;SDS011;69692;55.820;37.490;2023-08-06T11:37:16;8.38;;;5.88;;
80381;SDS011;69692;55.820;37.490;2023-08-06T11:39:45;7.22;;;5.70;;
80381;SDS011;69692;55.820;37.490;2023-08-06T11:42:13;13.43;;;12.38;;
80381;SDS011;69692;55.820;37.490;2023-08-06T11:44:40;10.70;;;9.75;;
80381;SDS011;69692;55.820;37.490;2023-08-06T11:47:15;13.80;;;12.77;;
80381;SDS011;69692;55.820;37.490;2023-08-06T11:49:46;12.38;;;11.35;;
80381;SDS011;69692;55.820;37.490;2023-08-06T11:52:15;10.98;;;10.25;;
80381;SDS011;69692;55.820;37.490;2023-08-06T11:54:44;13.65;;;12.75;;
80381;SDS011;69692;55.820;37.490;2023-08-06T11:57:11;13.60;;;12.60;;
80381;SDS011;69692;55.820;37.490;2023-08-06T11:59:38;15.65;;;14.80;;
80381;SDS011;69692;55.820;37.490;2023-08-06T12:02:05;14.23;;;13.07;;
80381;SDS011;69692;55.820;37.490;2023-08-06T12:07:59;6.97;;;6.38;;
80381;SDS011;69692;55.820;37.490;2023-08-06T12:10:25;12.32;;;11.40;;
80381;SDS011;69692;55.820;37.490;2023-08-06T12:12:52;11.48;;;10.68;;
80381;SDS011;69692;55.820;37.490;2023-08-06T12:15:19;6.05;;;5.00;;
80381;SDS011;69692;55.820;37.490;2023-08-06T12:17:45;6.70;;;6.00;;
80381;SDS011;69692;55.820;37.490;2023-08-06T12:20:11;7.75;;;6.30;;
80381;SDS011;69692;55.820;37.490;2023-08-06T12:22:37;7.85;;;6.43;;
80381;SDS011;69692;55.820;37.490;2023-08-06T12:25:06;6.35;;;5.75;;
80381;SDS011;69692;55.820;37.490;2023-08-06T12:27:35;8.38;;;6.95;;
80381;SDS011;69692;55.820;37.490;2023-08-06T12:30:03;6.53;;;5.05;;
80381;SDS011;69692;55.820;37.490;2023-08-06T12:32:34;6.80;;;5.20;;
80381;SDS011;69692;55.820;37.490;2023-08-06T12:35:00;8.23;;;7.03;;
80381;SDS011;69692;55.820;37.490;2023-08-06T12:37:31;11.43;;;7.63;;
80381;SDS011;69692;55.820;37.490;2023-08-06T12:39:57;8.52;;;6.55;;
80381;SDS011;69692;55.820;37.490;2023-08-06T12:42:23;9.77;;;6.82;;
80381;SDS011;69692;55.820;37.490;2023-08-06T12:44:49;5.32;;;4.78;;
80381;SDS011;69692;55.820;37.490;2023-08-06T12:47:16;7.45;;;5.78;;
80381;SDS011;69692;55.820;37.490;2023-08-06T12:49:42;7.53;;;5.25;;
80381;SDS011;69692;55.820;37.490;2023-08-06T12:52:08;5.95;;;4.22;;
80381;SDS011;69692;55.820;37.490;2023-08-06T12:54:35;4.93;;;4.40;;
80381;SDS011;69692;55.820;37.490;2023-08-06T12:57:04;6.68;;;6.05;;
80381;SDS011;69692;55.820;37.490;2023-08-06T12:59:31;7.88;;;5.50;;
80381;SDS011;69692;55.820;37.490;2023-08-06T13:01:59;7.97;;;6.35;;
80381;SDS011;69692;55.820;37.490;2023-08-06T13:04:26;12.70;;;6.20;;
80381;SDS011;69692;55.820;37.490;2023-08-06T13:06:53;7.90;;;6.22;;
80381;SDS011;69692;55.820;37.490;2023-08-06T13:09:19;8.40;;;5.93;;
80381;SDS011;69692;55.820;37.490;2023-08-06T13:11:46;8.05;;;6.85;;
80381;SDS011;69692;55.820;37.490;2023-08-06T13:14:16;9.35;;;6.20;;
80381;SDS011;69692;55.820;37.490;2023-08-06T13:16:42;12.85;;;6.05;;
80381;SDS011;69692;55.820;37.490;2023-08-06T13:19:09;10.15;;;4.88;;
80381;SDS011;69692;55.820;37.490;2023-08-06T13:24:08;6.60;;;4.75;;
80381;SDS011;69692;55.820;37.490;2023-08-06T13:26:34;8.27;;;6.60;;
80381;SDS011;69692;55.820;37.490;2023-08-06T13:29:01;7.43;;;6.00;;
80381;SDS011;69692;55.820;37.490;2023-08-06T13:31:27;7.32;;;5.47;;
80381;SDS011;69692;55.820;37.490;2023-08-06T13:33:54;7.80;;;6.00;;
80381;SDS011;69692;55.820;37.490;2023-08-06T13:36:24;9.10;;;8.30;;
80381;SDS011;69692;55.820;37.490;2023-08-06T13:41:19;8.18;;;6.32;;
80381;SDS011;69692;55.820;37.490;2023-08-06T13:43:45;6.45;;;4.85;;
80381;SDS011;69692;55.820;37.490;2023-08-06T13:46:11;7.63;;;5.38;;
80381;SDS011;69692;55.820;37.490;2023-08-06T13:48:42;7.05;;;6.05;;
80381;SDS011;69692;55.820;37.490;2023-08-06T13:51:09;6.40;;;4.75;;
80381;SDS011;69692;55.820;37.490;2023-08-06T13:53:37;5.65;;;4.28;;
80381;SDS011;69692;55.820;37.490;2023-08-06T13:56:04;6.20;;;4.75;;
80381;SDS011;69692;55.820;37.490;2023-08-06T13:58:31;13.20;;;6.63;;
80381;SDS011;69692;55.820;37.490;2023-08-06T14:00:58;5.38;;;4.80;;
80381;SDS011;69692;55.820;37.490;2023-08-06T14:03:23;10.18;;;5.18;;
80381;SDS011;69692;55.820;37.490;2023-08-06T14:05:49;8.80;;;6.03;;
80381;SDS011;69692;55.820;37.490;2023-08-06T14:08:15;6.90;;;5.32;;
80381;SDS011;69692;55.820;37.490;2023-08-06T14:10:44;9.40;;;5.80;;
80381;SDS011;69692;55.820;37.490;2023-08-06T14:13:10;10.48;;;6.38;;
80381;SDS011;69692;55.820;37.490;2023-08-06T14:15:36;10.80;;;5.93;;
80381;SDS011;69692;55.820;37.490;2023-08-06T14:18:06;8.95;;;6.15;;
80381;SDS011;69692;55.820;37.490;2023-08-06T14:20:34;10.57;;;5.53;;
80381;SDS011;69692;55.820;37.490;2023-08-06T14:23:00;10.20;;;5.50;;
80381;SDS011;69692;55.820;37.490;2023-08-06T14:25:26;8.93;;;6.60;;
80381;SDS011;69692;55.820;37.490;2023-08-06T14:27:52;7.30;;;5.90;;
80381;SDS011;69692;55.820;37.490;2023-08-06T14:30:18;8.45;;;6.43;;
80381;SDS011;69692;55.820;37.490;2023-08-06T14:32:44;6.35;;;5.38;;
80381;SDS011;69692;55.820;37.490;2023-08-06T14:35:10;8.63;;;6.03;;
80381;SDS011;69692;55.820;37.490;2023-08-06T14:37:35;6.75;;;5.93;;
80381;SDS011;69692;55.820;37.490;2023-08-06T14:40:01;13.85;;;5.47;;
80381;SDS011;69692;55.820;37.490;2023-08-06T14:42:27;7.95;;;5.82;;
80381;SDS011;69692;55.820;37.490;2023-08-06T14:44:53;8.88;;;5.40;;
80381;SDS011;69692;55.820;37.490;2023-08-06T14:47:19;8.90;;;5.60;;